createdAt,value
2023-04-17T05:45:57.576Z,98931.86
2023-04-17T05:48:26.932Z,98933.66
2023-04-17T05:50:55.324Z,98935.84
2023-04-17T05:53:24.184Z,98937.02
2023-04-17T05:55:56.909Z,98939.11
2023-04-17T05:58:45.905Z,98942.58
2023-04-17T06:01:18.211Z,98941.80
2023-04-17T06:03:46.762Z,98942.59
2023-04-17T06:06:19.678Z,98943.59
2023-04-17T06:08:49.945Z,98946.87
2023-04-17T06:11:38.275Z,98944.83
2023-04-17T06:14:29.591Z,98948.84
2023-04-17T06:16:58.708Z,98948.22
2023-04-17T06:19:27.072Z,98948.83
2023-04-17T06:21:55.329Z,98946.55
2023-04-17T06:24:24.134Z,98947.24
2023-04-17T06:26:52.517Z,98950.33
2023-04-17T06:29:21.399Z,98948.64
2023-04-17T06:35:14.434Z,98949.36
2023-04-17T06:37:48.071Z,98952.23
2023-04-17T06:40:15.260Z,98953.10
2023-04-17T06:42:42.449Z,98958.37
2023-04-17T06:45:33.634Z,98956.45
2023-04-17T06:48:00.718Z,98958.32
2023-04-17T06:50:28.749Z,98953.66
2023-04-17T06:52:56.236Z,98962.00
2023-04-17T06:55:29.689Z,98961.20
2023-04-17T06:58:00.262Z,98962.25
2023-04-17T07:00:27.211Z,98959.43
2023-04-17T07:02:54.898Z,98958.91
2023-04-17T07:05:22.015Z,98956.27
2023-04-17T07:07:53.885Z,98955.98
2023-04-17T07:10:21.124Z,98960.71
2023-04-17T07:12:48.631Z,98957.67
2023-04-17T07:15:17.399Z,98964.09
2023-04-17T07:17:45.041Z,98966.08
2023-04-17T07:20:12.118Z,98967.17
2023-04-17T07:22:39.517Z,98966.09
2023-04-17T07:25:07.370Z,98967.57
2023-04-17T07:27:35.429Z,98970.01
2023-04-17T07:30:08.604Z,98969.46
2023-04-17T07:32:39.357Z,98968.45
2023-04-17T07:35:07.121Z,98964.99
2023-04-17T07:37:34.194Z,98966.73
2023-04-17T07:40:01.701Z,98963.83
2023-04-17T07:42:29.069Z,98959.60
2023-04-17T07:44:56.832Z,98962.56
2023-04-17T07:47:24.549Z,98961.88
2023-04-17T07:49:51.734Z,98961.70
2023-04-17T07:52:18.731Z,98958.59
2023-04-17T07:54:47.058Z,98955.91
2023-04-17T07:57:14.943Z,98955.92
2023-04-17T07:59:42.011Z,98953.61
2023-04-17T08:02:09.475Z,98958.76
2023-04-17T08:04:39.786Z,98960.05
2023-04-17T08:07:12.239Z,98957.73
2023-04-17T08:09:41.457Z,98955.45
2023-04-17T08:26:13.194Z,98951.59
2023-04-17T08:28:43.109Z,98957.14
2023-04-17T08:31:11.723Z,98959.81
2023-04-17T08:33:40.405Z,98961.62
2023-04-17T08:36:10.864Z,98961.33
2023-04-17T08:38:39.739Z,98957.31
2023-04-17T08:41:14.441Z,98952.82
2023-04-17T08:43:43.417Z,98950.88
2023-04-17T08:46:12.937Z,98946.15
2023-04-17T08:48:41.583Z,98944.14
2023-04-17T08:51:10.823Z,98943.52
2023-04-17T08:53:42.258Z,98938.94
2023-04-17T08:56:13.540Z,98940.23
2023-04-17T08:58:42.213Z,98942.20
2023-04-17T09:01:18.460Z,98939.52
2023-04-17T09:03:48.137Z,98942.68
2023-04-17T09:06:16.670Z,98937.15
2023-04-17T09:09:02.406Z,98938.20
2023-04-17T09:11:31.096Z,98943.20
2023-04-17T09:14:01.374Z,98943.57
2023-04-17T09:16:30.399Z,98940.13
2023-04-17T09:19:07.065Z,98938.24
2023-04-17T09:21:35.606Z,98936.67
2023-04-17T09:24:05.494Z,98937.54
2023-04-17T09:26:34.290Z,98937.48
2023-04-17T09:29:09.518Z,98930.33
2023-04-17T09:31:39.665Z,98927.97
2023-04-17T09:34:12.951Z,98928.07
2023-04-17T09:36:42.995Z,98925.10
2023-04-17T09:39:24.799Z,98929.31
2023-04-17T09:42:07.333Z,98927.99
2023-04-17T09:44:40.658Z,98925.02
2023-04-17T09:47:08.876Z,98929.52
2023-04-17T09:49:45.396Z,98924.36
2023-04-17T09:52:13.880Z,98919.52
2023-04-17T09:54:43.126Z,98923.61
2023-04-17T09:57:11.875Z,98919.21
2023-04-17T09:59:41.997Z,98920.59
2023-04-17T10:02:17.595Z,98915.90
2023-04-17T10:04:46.837Z,98909.29
2023-04-17T10:07:16.647Z,98911.08
2023-04-17T10:09:46.145Z,98908.92
2023-04-17T10:12:16.291Z,98912.67
2023-04-17T10:14:49.098Z,98906.52
2023-04-17T10:17:34.921Z,98906.38
2023-04-17T10:20:17.767Z,98901.57
2023-04-17T10:22:54.600Z,98903.07
2023-04-17T10:25:24.464Z,98904.23
2023-04-17T10:28:02.360Z,98906.68
2023-04-17T10:30:51.505Z,98899.64
2023-04-17T10:33:25.063Z,98901.23
2023-04-17T10:35:53.339Z,98899.01
2023-04-17T10:38:32.981Z,98894.17
2023-04-17T10:41:03.520Z,98893.88
2023-04-17T10:43:31.939Z,98895.04
2023-04-17T10:46:00.364Z,98890.21
2023-04-17T10:48:56.593Z,98886.48
2023-04-17T10:51:29.286Z,98889.63
2023-04-17T10:54:01.577Z,98889.46
2023-04-17T10:56:35.533Z,98883.79
2023-04-17T10:59:07.183Z,98879.60
2023-04-17T11:01:47.589Z,98878.25
2023-04-17T11:04:20.100Z,98878.36
2023-04-17T11:06:48.514Z,98873.63
2023-04-17T11:09:17.288Z,98869.49
2023-04-17T11:11:48.685Z,98868.14
2023-04-17T11:18:59.824Z,98863.23
2023-04-17T11:35:15.487Z,98844.55
2023-04-17T17:21:42.873Z,98896.48
2023-04-17T17:24:11.438Z,98895.65
2023-04-17T17:26:42.567Z,98896.30
2023-04-17T17:29:11.189Z,98896.89
2023-04-17T17:31:39.989Z,98898.50
2023-04-17T17:34:22.393Z,98904.42
2023-04-17T17:36:54.362Z,98902.91
2023-04-17T17:39:23.716Z,98904.80
2023-04-17T17:41:52.416Z,98908.70
2023-04-17T17:44:23.566Z,98912.19
2023-04-17T17:46:51.822Z,98914.62
2023-04-17T17:49:20.441Z,98917.61
2023-04-17T17:51:51.559Z,98917.67
2023-04-17T17:54:19.716Z,98916.90
2023-04-17T17:56:47.846Z,98918.60
2023-04-17T17:59:16.390Z,98917.03
2023-04-17T18:01:44.798Z,98918.44
2023-04-17T18:04:13.368Z,98920.17
2023-04-17T18:06:42.629Z,98921.86
2023-04-17T18:09:11.012Z,98919.16
2023-04-17T18:11:39.392Z,98918.40
2023-04-17T18:14:07.654Z,98920.62
2023-04-17T18:16:37.790Z,98918.48
2023-04-17T18:19:06.873Z,98921.04
2023-04-17T18:21:35.457Z,98916.30
2023-04-17T18:24:03.752Z,98911.59
2023-04-17T18:26:32.036Z,98912.55
2023-04-17T18:29:01.006Z,98912.31
2023-04-17T18:31:29.553Z,98910.67
2023-04-17T18:34:02.219Z,98913.10
2023-04-17T18:36:31.070Z,98907.57
2023-04-17T18:38:59.198Z,98908.62
2023-04-17T18:41:27.711Z,98907.77
2023-04-17T18:43:56.191Z,98906.05
2023-04-17T18:46:26.470Z,98907.20
2023-04-17T18:48:54.514Z,98905.57
2023-04-17T18:51:22.861Z,98900.12
2023-04-17T18:53:51.673Z,98901.73
2023-04-17T18:56:19.854Z,98897.38
2023-04-17T18:58:51.415Z,98892.56
2023-04-17T19:01:19.679Z,98895.44
2023-04-17T19:03:48.108Z,98891.75
2023-04-17T19:06:16.625Z,98888.96
2023-04-17T19:08:45.293Z,98889.11
2023-04-17T19:11:13.434Z,98886.29
2023-04-17T19:13:42.986Z,98882.42
2023-04-17T19:16:11.685Z,98885.35
2023-04-17T19:18:39.817Z,98883.24
2023-04-17T19:21:08.206Z,98883.88
2023-04-17T19:23:37.541Z,98885.52
2023-04-17T19:26:05.787Z,98884.20
2023-04-17T19:28:34.027Z,98883.03
2023-04-17T19:31:03.203Z,98881.17
2023-04-17T19:33:32.048Z,98879.42
2023-04-17T19:36:03.233Z,98879.95
2023-04-17T19:38:31.904Z,98879.98
2023-04-17T19:41:20.215Z,98879.27
2023-04-17T19:43:51.979Z,98877.48
2023-04-17T19:46:21.248Z,98876.96
2023-04-17T19:48:49.937Z,98875.82
2023-04-17T19:51:18.753Z,98880.39
2023-04-17T19:53:48.149Z,98877.59
2023-04-17T19:56:16.636Z,98875.83
2023-04-17T19:58:46.298Z,98873.89
2023-04-17T20:01:15.204Z,98870.83
2023-04-17T20:03:45.810Z,98872.75
2023-04-17T20:06:14.344Z,98872.13
2023-04-17T20:08:42.825Z,98871.50
2023-04-17T20:11:12.454Z,98868.28
2023-04-17T20:13:41.562Z,98868.28
2023-04-17T20:16:09.987Z,98865.05
2023-04-17T20:18:41.990Z,98862.13
2023-04-17T20:21:10.258Z,98860.08
2023-04-17T20:23:38.617Z,98857.06
2023-04-17T20:26:06.795Z,98853.21
2023-04-17T20:28:35.198Z,98847.26
2023-04-17T20:31:03.815Z,98847.77
2023-04-17T20:33:35.370Z,98846.06
2023-04-17T20:36:03.990Z,98843.63
2023-04-17T20:38:32.398Z,98843.52
2023-04-17T20:41:01.158Z,98839.65
2023-04-17T20:43:31.689Z,98835.67
2023-04-17T20:45:59.925Z,98831.64
2023-04-17T20:48:28.505Z,98830.41
2023-04-17T20:50:59.216Z,98830.23
2023-04-17T20:53:27.357Z,98830.35
2023-04-17T20:55:57.817Z,98830.38
2023-04-17T20:58:26.093Z,98828.15
2023-04-17T21:01:01.375Z,98826.19
2023-04-17T21:03:31.445Z,98824.20
2023-04-17T21:06:00.417Z,98826.58
2023-04-17T21:08:29.418Z,98828.10
2023-04-17T21:10:57.681Z,98824.23
2023-04-17T21:13:26.682Z,98820.89
2023-04-17T21:15:55.363Z,98820.78
2023-04-17T21:18:23.662Z,98815.61
2023-04-17T21:20:52.002Z,98819.87
2023-04-17T21:23:21.616Z,98816.89
2023-04-17T21:25:52.000Z,98812.40
2023-04-17T21:28:20.422Z,98809.92
2023-04-17T21:30:48.706Z,98812.46
2023-04-17T21:33:17.280Z,98810.81
2023-04-17T21:35:46.279Z,98812.52
2023-04-17T21:38:14.476Z,98811.24
2023-04-17T21:40:51.117Z,98811.77
2023-04-17T21:43:21.021Z,98810.07
2023-04-17T21:45:52.666Z,98808.95
2023-04-17T21:48:21.785Z,98808.29
2023-04-17T21:50:50.189Z,98805.91
2023-04-17T21:53:18.744Z,98803.05
2023-04-17T21:55:46.884Z,98803.96
2023-04-17T21:58:15.507Z,98803.06
2023-04-17T22:00:43.916Z,98806.20
2023-04-17T22:03:12.586Z,98807.34
2023-04-17T22:05:42.283Z,98804.80
2023-04-17T22:08:11.120Z,98807.26
2023-04-17T22:10:39.373Z,98806.65
2023-04-17T22:13:07.708Z,98801.58
2023-04-17T22:15:35.945Z,98802.69
2023-04-17T22:18:04.593Z,98799.50
2023-04-17T22:20:33.104Z,98795.14
2023-04-17T22:23:01.455Z,98794.79
2023-04-17T22:25:29.630Z,98794.50
2023-04-17T22:27:57.877Z,98795.09
2023-04-17T22:30:26.469Z,98796.71
2023-04-17T22:32:54.726Z,98791.64
2023-04-17T22:35:23.517Z,98793.92
2023-04-17T22:37:54.770Z,98788.48
2023-04-17T22:40:23.069Z,98784.17
2023-04-17T22:42:51.546Z,98778.27
2023-04-17T22:45:20.099Z,98776.65
2023-04-17T22:47:48.530Z,98771.24
2023-04-17T22:50:17.882Z,98768.89
2023-04-17T22:52:46.314Z,98763.13
2023-04-17T22:55:14.741Z,98761.23
2023-04-17T22:57:43.326Z,98759.08
2023-04-17T23:00:12.433Z,98761.73
2023-04-17T23:02:40.619Z,98751.85
2023-04-17T23:05:09.488Z,98752.49
2023-04-17T23:07:39.804Z,98744.89
2023-04-17T23:10:08.689Z,98748.14
2023-04-17T23:12:36.905Z,98744.04
2023-04-17T23:15:08.526Z,98740.73
2023-04-17T23:17:36.879Z,98738.17
2023-04-17T23:20:06.073Z,98736.99
2023-04-17T23:22:34.654Z,98738.58
2023-04-17T23:25:03.309Z,98736.14
2023-04-17T23:27:32.273Z,98734.89
2023-04-17T23:30:01.052Z,98729.46
2023-04-17T23:32:29.760Z,98729.10
2023-04-17T23:34:58.016Z,98728.40
2023-04-17T23:37:26.307Z,98728.02
2023-04-17T23:47:37.722Z,98720.65
2023-04-17T23:50:07.584Z,98722.10
2023-04-17T23:52:36.356Z,98718.91
2023-04-17T23:55:06.023Z,98718.86
2023-04-17T23:57:35.688Z,98719.13
